Time;durP1;ratioP1;P1;durP2;ratioP2;P2;SDS_P1;SDS_P2;PMS_P1;PMS_P2;Temp;Humidity;BMP_temperature;BMP_pressure;BME280_temperature;BME280_humidity;BME280_pressure;Samples;Min_cycle;Max_cycle;Signal;HPM_P1;HPM_P2
2022/06/01 00:01:13;;;;;;;3.38;1.92;;;;;;;22.19;58.45;99950.34;5079702;28;20093;-69
2022/06/01 00:03:42;;;;;;;4.53;1.38;;;;;;;22.21;58.73;99947.91;5087932;28;20051;-70
2022/06/01 00:06:10;;;;;;;7.65;1.30;;;;;;;22.08;58.70;99931.34;5084876;28;20580;-70
2022/06/01 00:08:38;;;;;;;5.88;2.08;;;;;;;22.07;58.70;99933.38;5081975;28;20052;-71
2022/06/01 00:11:06;;;;;;;5.28;1.17;;;;;;;22.08;58.37;99937.03;5085569;28;20127;-70
2022/06/01 00:13:33;;;;;;;11.88;2.58;;;;;;;22.07;58.68;99938.25;5086907;28;20048;-70
2022/06/01 00:16:00;;;;;;;5.95;1.90;;;;;;;22.01;58.38;99923.47;5084153;28;20127;-70
2022/06/01 00:18:27;;;;;;;7.38;1.35;;;;;;;21.96;58.54;99918.94;5086866;28;20056;-71
2022/06/01 00:20:54;;;;;;;7.93;2.15;;;;;;;22.16;58.29;99947.41;5080557;28;20139;-68
2022/06/01 00:23:21;;;;;;;6.60;1.40;;;;;;;22.14;58.32;99941.22;5085804;28;20135;-69
2022/06/01 00:25:48;;;;;;;3.33;1.80;;;;;;;22.12;58.49;99950.16;5075738;28;20510;-69
2022/06/01 00:28:16;;;;;;;8.57;1.55;;;;;;;22.08;58.94;99939.88;5075650;28;20049;-69
2022/06/01 00:30:43;;;;;;;8.43;1.42;;;;;;;21.98;58.91;99930.75;5077858;28;20071;-70
2022/06/01 00:33:10;;;;;;;6.55;2.30;;;;;;;21.96;58.93;99947.34;5081361;28;20048;-69
2022/06/01 00:35:37;;;;;;;4.32;2.30;;;;;;;21.91;59.24;99946.81;5086753;28;20123;-68
2022/06/01 00:38:05;;;;;;;3.80;1.48;;;;;;;21.88;59.32;99933.34;5079832;28;20144;-70
2022/06/01 00:40:38;;;;;;;3.28;1.50;;;;;;;21.91;59.37;99947.63;5084680;28;20127;-69
2022/06/01 00:43:21;;;;;;;6.43;2.30;;;;;;;21.87;59.51;99931.72;5084697;28;20056;-69
2022/06/01 00:45:48;;;;;;;7.60;1.85;;;;;;;21.82;59.65;99923.50;5082020;28;20101;-68
2022/06/01 00:48:15;;;;;;;8.15;2.20;;;;;;;21.80;59.67;99926.69;5096018;28;20074;-69
2022/06/01 00:50:43;;;;;;;8.20;3.47;;;;;;;21.89;59.61;99930.16;5081196;28;20051;-70
2022/06/01 00:53:22;;;;;;;7.97;2.03;;;;;;;21.87;59.50;99924.00;5087141;28;20482;-69
2022/06/01 00:55:57;;;;;;;6.35;2.33;;;;;;;21.93;59.54;99933.88;5086123;28;20463;-70
2022/06/01 00:58:30;;;;;;;9.27;1.70;;;;;;;21.93;59.38;99925.34;5080429;28;20517;-70
2022/06/01 01:00:58;;;;;;;9.40;1.92;;;;;;;21.84;59.65;99921.06;5075744;28;20476;-69
2022/06/01 01:03:29;;;;;;;4.43;1.48;;;;;;;21.75;59.97;99918.47;5085129;28;20048;-68
2022/06/01 01:06:20;;;;;;;10.50;2.05;;;;;;;21.72;59.61;99920.03;5088787;28;20048;-69
2022/06/01 01:08:48;;;;;;;7.97;1.70;;;;;;;21.74;59.94;99920.50;5084389;28;20124;-69
2022/06/01 01:11:23;;;;;;;7.88;2.22;;;;;;;21.85;60.19;99922.75;5085805;28;20043;-67
2022/06/01 01:13:53;;;;;;;5.40;1.88;;;;;;;21.87;60.25;99914.66;5094661;28;20095;-68
2022/06/01 01:16:21;;;;;;;8.55;1.80;;;;;;;21.83;60.19;99916.59;5085793;28;20090;-68
2022/06/01 01:18:51;;;;;;;8.10;1.58;;;;;;;21.84;60.27;99919.06;5078019;28;20140;-68
2022/06/01 01:21:26;;;;;;;8.57;1.95;;;;;;;21.81;60.43;99930.34;5075941;28;20520;-69
2022/06/01 01:24:13;;;;;;;11.23;2.50;;;;;;;21.81;60.75;99919.78;5083705;28;20456;-68
2022/06/01 01:26:46;;;;;;;6.63;1.40;;;;;;;21.82;60.67;99918.63;5087205;28;20087;-68
2022/06/01 01:29:14;;;;;;;16.67;2.50;;;;;;;21.79;60.61;99901.50;5077110;28;20135;-67
2022/06/01 01:31:43;;;;;;;9.48;1.63;;;;;;;21.80;60.79;99909.63;5081513;28;20151;-69
2022/06/01 01:34:10;;;;;;;10.93;1.83;;;;;;;21.78;60.87;99914.88;5089788;28;20064;-69
2022/06/01 01:36:50;;;;;;;9.73;2.85;;;;;;;21.83;60.68;99908.06;5084505;28;20052;-69
2022/06/01 01:39:17;;;;;;;6.95;1.65;;;;;;;21.74;61.41;99894.06;5089774;28;20119;-67
2022/06/01 01:41:52;;;;;;;7.72;2.67;;;;;;;21.71;61.06;99889.97;5093617;28;20127;-69
2022/06/01 01:44:30;;;;;;;6.05;2.17;;;;;;;21.64;61.29;99860.53;5086355;28;20051;-68
2022/06/01 01:46:58;;;;;;;12.63;3.40;;;;;;;21.82;61.32;99884.50;5083081;28;20646;-68
2022/06/01 01:49:30;;;;;;;11.18;1.83;;;;;;;21.85;61.41;99875.25;5085154;28;20101;-68
2022/06/01 01:52:00;;;;;;;6.10;2.33;;;;;;;21.62;61.37;99848.75;5084227;28;20052;-68
2022/06/01 01:54:58;;;;;;;4.03;1.67;;;;;;;21.75;61.47;99879.50;5089860;28;20082;-68
2022/06/01 01:57:36;;;;;;;15.77;1.73;;;;;;;21.70;61.36;99876.13;5089571;28;20139;-68
2022/06/01 02:00:14;;;;;;;12.27;2.38;;;;;;;21.77;61.81;99870.59;5090623;28;20132;-71
2022/06/01 02:03:17;;;;;;;6.57;1.50;;;;;;;21.78;61.74;99877.94;5099968;28;20426;-71
2022/06/01 02:06:06;;;;;;;5.95;1.95;;;;;;;21.71;61.76;99838.00;5090038;28;20131;-70
2022/06/01 02:08:51;;;;;;;4.10;1.30;;;;;;;21.92;61.64;99866.03;5080913;28;20052;-71
2022/06/01 02:14:18;;;;;;;12.60;2.00;;;;;;;21.92;62.04;99864.03;5090369;28;20048;-70
2022/06/01 02:17:10;;;;;;;11.82;2.58;;;;;;;21.97;61.71;99874.25;5084937;28;20092;-69
2022/06/01 02:19:53;;;;;;;12.00;1.65;;;;;;;21.92;61.58;99872.56;5076648;28;20048;-69
2022/06/01 02:22:20;;;;;;;5.53;1.60;;;;;;;21.66;62.13;99858.16;5080819;28;20444;-70
2022/06/01 02:24:47;;;;;;;5.78;2.03;;;;;;;21.56;62.36;99847.41;5077268;28;20581;-71
2022/06/01 02:27:16;;;;;;;11.18;1.80;;;;;;;21.51;62.78;99845.69;5085628;28;20131;-70
2022/06/01 02:29:58;;;;;;;5.80;1.95;;;;;;;21.46;63.17;99841.09;5088242;28;20464;-70
2022/06/01 02:32:26;;;;;;;7.15;1.45;;;;;;;21.20;63.16;99796.28;5090865;28;20076;-69
2022/06/01 02:34:56;;;;;;;5.07;2.00;;;;;;;21.12;63.29;99816.34;5083159;28;20076;-69
2022/06/01 02:37:25;;;;;;;6.90;1.80;;;;;;;21.02;64.15;99812.88;5087629;28;20091;-70
2022/06/01 02:39:55;;;;;;;13.65;2.30;;;;;;;20.87;64.45;99788.19;5089669;28;20054;-69
2022/06/01 02:42:25;;;;;;;7.55;2.10;;;;;;;20.82;64.59;99808.34;5086147;28;20044;-68
2022/06/01 02:44:56;;;;;;;;;;;;;;;20.81;65.22;99823.69;5083765;28;20045;-69
2022/06/01 02:47:26;;;;;;;6.78;2.15;;;;;;;20.81;64.78;99818.03;5080118;28;20062;-69
2022/06/01 02:49:53;;;;;;;9.50;2.83;;;;;;;20.84;64.90;99828.66;5086380;28;20048;-69
2022/06/01 02:52:20;;;;;;;5.03;1.75;;;;;;;20.91;64.39;99828.00;5081488;28;20076;-68
2022/06/01 02:54:47;;;;;;;7.57;1.45;;;;;;;20.77;64.73;99802.94;5089982;28;20124;-70
2022/06/01 02:57:15;;;;;;;4.80;1.98;;;;;;;20.99;64.62;99829.81;5086328;28;20501;-69
2022/06/01 02:59:42;;;;;;;12.77;1.92;;;;;;;21.13;64.25;99817.97;5081112;28;20075;-70
2022/06/01 03:02:10;;;;;;;10.48;2.50;;;;;;;21.23;64.01;99818.25;5085483;28;20093;-70
2022/06/01 03:04:41;;;;;;;6.85;1.95;;;;;;;21.12;63.96;99827.69;5087819;28;20127;-70
2022/06/01 03:07:10;;;;;;;7.50;2.35;;;;;;;20.87;64.17;99798.72;5088905;28;20094;-69
2022/06/01 03:09:37;;;;;;;3.97;1.65;;;;;;;20.92;64.34;99804.94;5085795;28;20052;-68
2022/06/01 03:12:06;;;;;;;6.75;1.73;;;;;;;20.61;64.50;99756.72;5082819;28;20052;-69
2022/06/01 03:14:36;;;;;;;8.27;1.63;;;;;;;20.94;64.51;99811.06;5077870;28;20131;-69
2022/06/01 03:17:06;;;;;;;;;;;;;;;20.75;65.20;99803.31;5080499;28;20044;-70
2022/06/01 03:19:33;;;;;;;8.13;1.77;;;;;;;20.83;64.74;99807.97;5077187;28;19971;-70
2022/06/01 03:22:01;;;;;;;5.10;1.77;;;;;;;20.54;64.76;99763.88;5082516;28;20450;-69
2022/06/01 03:24:28;;;;;;;12.48;3.08;;;;;;;20.83;64.78;99809.97;5089162;28;20105;-69
2022/06/01 03:26:55;;;;;;;11.68;2.00;;;;;;;20.74;65.19;99806.50;5085402;28;21027;-69
2022/06/01 03:29:24;;;;;;;7.53;2.08;;;;;;;20.67;65.12;99786.47;5090853;28;20079;-69
2022/06/01 03:31:53;;;;;;;8.18;1.42;;;;;;;20.64;65.60;99802.19;5077137;28;20469;-70
2022/06/01 03:34:20;;;;;;;5.47;1.63;;;;;;;20.65;65.42;99805.84;5084114;28;20052;-69
2022/06/01 03:36:47;;;;;;;7.60;2.00;;;;;;;20.62;65.60;99789.59;5082893;28;20487;-69
2022/06/01 03:39:14;;;;;;;6.03;2.00;;;;;;;20.66;65.56;99799.03;5087736;28;20083;-68
2022/06/01 03:41:41;;;;;;;8.10;1.65;;;;;;;20.39;65.90;99776.03;5088020;28;20135;-70
2022/06/01 03:47:00;;;;;;;8.75;2.05;;;;;;;20.56;66.06;99801.22;5084734;28;20083;-71
2022/06/01 03:49:27;;;;;;;6.93;1.85;;;;;;;20.61;66.37;99807.78;5084103;28;20136;-69
2022/06/01 03:51:54;;;;;;;8.13;2.35;;;;;;;20.75;65.85;99797.63;5079536;28;20421;-69
2022/06/01 03:54:21;;;;;;;9.07;3.42;;;;;;;21.02;65.56;99807.19;5084136;28;20143;-68
2022/06/01 03:56:48;;;;;;;5.40;2.30;;;;;;;21.18;64.88;99803.50;5081542;28;20489;-68
2022/06/01 03:59:15;;;;;;;8.15;1.95;;;;;;;20.92;65.00;99778.56;5088032;28;20139;-67
2022/06/01 04:01:41;;;;;;;4.50;2.20;;;;;;;20.99;65.09;99809.94;5082072;28;20135;-69
2022/06/01 04:04:08;;;;;;;6.22;2.00;;;;;;;20.87;64.91;99804.38;5081030;28;20064;-69
2022/06/01 04:06:35;;;;;;;4.18;2.20;;;;;;;20.83;64.80;99792.94;5085134;28;20464;-68
2022/06/01 04:09:02;;;;;;;5.80;2.00;;;;;;;20.58;65.22;99775.28;5080834;28;20093;-68
2022/06/01 04:11:29;;;;;;;4.50;2.10;;;;;;;20.46;65.66;99781.88;5087224;28;20138;-67
2022/06/01 04:13:57;;;;;;;7.30;2.13;;;;;;;20.32;65.66;99751.13;5085802;28;20143;-68
2022/06/01 04:16:23;;;;;;;7.38;3.10;;;;;;;20.61;65.68;99799.28;5084479;28;20139;-68
2022/06/01 04:18:50;;;;;;;6.00;2.53;;;;;;;20.55;65.75;99779.72;5094372;28;20055;-70
2022/06/01 04:21:23;;;;;;;4.15;2.60;;;;;;;20.52;65.86;99774.78;5092812;28;20047;-69
2022/06/01 04:23:51;;;;;;;7.65;2.30;;;;;;;20.67;65.99;99789.31;5088516;28;20193;-71
2022/06/01 04:26:17;;;;;;;6.80;1.92;;;;;;;20.67;65.68;99800.66;5085568;28;20098;-71
2022/06/01 04:28:46;;;;;;;5.00;2.00;;;;;;;20.77;66.24;99792.41;5081159;28;20138;-70
2022/06/01 04:31:13;;;;;;;8.93;2.45;;;;;;;20.81;66.17;99784.78;5094954;28;20044;-70
2022/06/01 04:33:42;;;;;;;6.75;2.25;;;;;;;20.63;66.17;99791.25;5077017;28;20061;-69
2022/06/01 04:36:10;;;;;;;9.63;2.83;;;;;;;20.39;66.78;99795.88;5089760;28;20075;-69
2022/06/01 04:38:37;;;;;;;8.80;2.17;;;;;;;20.22;67.13;99799.06;5079979;28;20091;-70
2022/06/01 04:41:04;;;;;;;6.30;2.67;;;;;;;20.03;67.89;99806.25;5081637;28;20090;-70
2022/06/01 04:43:31;;;;;;;5.57;2.30;;;;;;;19.99;68.27;99845.00;5075775;28;20578;-70
2022/06/01 04:45:58;;;;;;;6.65;2.50;;;;;;;19.90;69.48;99847.19;5079832;28;20048;-70
2022/06/01 04:48:26;;;;;;;6.43;3.28;;;;;;;19.65;70.68;99818.91;5090818;28;20059;-70
2022/06/01 04:50:56;;;;;;;8.23;2.53;;;;;;;19.65;71.38;99826.59;5088294;28;20056;-69
2022/06/01 04:53:23;;;;;;;14.25;2.13;;;;;;;19.52;72.62;99830.63;5090500;28;20076;-68
2022/06/01 04:55:51;;;;;;;3.75;1.58;;;;;;;19.42;73.10;99827.13;5084953;28;20144;-69
2022/06/01 04:58:18;;;;;;;4.13;1.38;;;;;;;19.10;74.06;99792.16;5084114;28;20230;-70
2022/06/01 05:00:45;;;;;;;2.88;1.35;;;;;;;19.14;74.70;99824.25;5091010;28;20071;-70
2022/06/01 05:03:13;;;;;;;2.25;0.82;;;;;;;19.13;75.29;99830.25;5077496;28;20491;-69
2022/06/01 05:05:40;;;;;;;1.60;0.98;;;;;;;18.87;76.21;99816.44;5085456;28;20094;-69
2022/06/01 05:08:11;;;;;;;0.73;0.70;;;;;;;18.95;76.58;99829.66;5089204;28;20048;-69
2022/06/01 05:10:39;;;;;;;;;;;;;;;18.96;78.27;99844.63;5075740;28;20075;-69
2022/06/01 05:13:07;;;;;;;3.88;1.42;;;;;;;18.90;78.21;99861.84;5088822;28;19924;-71
2022/06/01 05:15:35;;;;;;;5.38;1.67;;;;;;;18.82;78.43;99856.31;5090218;28;20415;-72
2022/06/01 05:18:03;;;;;;;1.75;0.80;;;;;;;18.74;78.95;99851.59;5087800;28;20083;-72
2022/06/01 05:20:30;;;;;;;2.30;1.58;;;;;;;18.65;79.16;99841.19;5082804;28;20215;-70
2022/06/01 05:22:56;;;;;;;1.67;0.93;;;;;;;18.42;79.30;99835.13;5075577;28;20502;-69
2022/06/01 05:25:23;;;;;;;1.60;1.00;;;;;;;18.60;79.96;99869.69;5079867;28;20507;-72
2022/06/01 05:27:50;;;;;;;0.80;0.57;;;;;;;18.48;80.33;99869.66;5081313;28;20135;-71
2022/06/01 05:30:17;;;;;;;4.18;0.98;;;;;;;18.30;80.21;99848.44;5074886;28;20139;-70
2022/06/01 05:32:44;;;;;;;0.60;0.40;;;;;;;18.20;80.69;99873.13;5081104;28;20141;-71
2022/06/01 05:35:11;;;;;;;0.88;0.52;;;;;;;18.00;80.46;99845.75;5086462;28;20131;-72
2022/06/01 05:37:38;;;;;;;2.90;0.85;;;;;;;18.09;81.08;99882.41;5086651;28;20132;-70
2022/06/01 05:40:05;;;;;;;1.40;0.98;;;;;;;17.97;81.39;99874.69;5087863;28;20075;-72
2022/06/01 05:42:32;;;;;;;1.75;1.35;;;;;;;17.93;81.57;99891.50;5082783;28;20102;-70
2022/06/01 05:44:59;;;;;;;3.85;1.20;;;;;;;17.89;81.57;99890.56;5084396;28;20043;-71
2022/06/01 05:47:26;;;;;;;2.78;2.67;;;;;;;17.86;81.81;99901.72;5075296;28;20131;-71
2022/06/01 05:49:53;;;;;;;2.55;1.25;;;;;;;17.78;81.95;99906.28;5087328;28;20447;-69
2022/06/01 05:52:20;;;;;;;6.95;2.45;;;;;;;17.84;82.63;99916.16;5076930;28;20083;-72
2022/06/01 05:54:47;;;;;;;2.97;1.50;;;;;;;17.91;82.71;99912.78;5075909;28;21853;-68
2022/06/01 05:57:14;;;;;;;2.72;1.80;;;;;;;17.94;82.38;99895.16;5075914;28;20047;-70
2022/06/01 05:59:41;;;;;;;3.35;2.53;;;;;;;17.96;82.36;99890.81;5084671;28;20124;-71
2022/06/01 06:02:09;;;;;;;2.45;1.25;;;;;;;18.15;82.10;99901.63;5078718;28;20482;-71
2022/06/01 06:04:36;;;;;;;6.53;1.73;;;;;;;17.98;81.92;99854.59;5078261;28;20044;-70
2022/06/01 06:07:03;;;;;;;3.95;1.23;;;;;;;18.16;81.74;99866.53;5082078;28;20126;-70
2022/06/01 06:09:31;;;;;;;3.50;2.35;;;;;;;17.84;81.93;99841.91;5085501;28;20563;-71
2022/06/01 06:11:58;;;;;;;2.50;0.60;;;;;;;17.75;82.13;99854.09;5083422;28;20135;-71
2022/06/01 06:14:24;;;;;;;4.82;1.40;;;;;;;17.59;82.27;99878.47;5075697;28;20139;-70
2022/06/01 06:16:51;;;;;;;7.55;2.15;;;;;;;17.99;82.21;99880.84;5089616;28;20128;-70
2022/06/01 06:19:20;;;;;;;0.73;0.65;;;;;;;17.71;82.07;99884.22;5070230;28;20137;-75
2022/06/01 06:21:48;;;;;;;2.85;1.50;;;;;;;17.27;81.81;99894.16;5084821;28;20044;-71
2022/06/01 06:24:19;;;;;;;1.88;0.90;;;;;;;17.37;83.10;99895.75;5082035;28;20542;-70
2022/06/01 06:26:46;;;;;;;6.15;1.88;;;;;;;17.08;82.43;99911.50;5072112;28;20585;-68
2022/06/01 06:29:15;;;;;;;6.82;1.38;;;;;;;17.61;83.37;99912.84;5076884;28;20131;-71
2022/06/01 06:31:43;;;;;;;3.22;1.98;;;;;;;17.76;83.79;99886.00;5084948;28;20494;-74
2022/06/01 06:34:14;;;;;;;3.80;3.13;;;;;;;18.19;82.96;99911.06;5086936;28;20206;-79
2022/06/01 06:36:41;;;;;;;5.07;0.80;;;;;;;18.34;81.62;99934.19;5080560;28;20059;-71
2022/06/01 06:39:08;;;;;;;1.40;1.13;;;;;;;18.17;80.88;99952.13;5086217;28;20056;-71
2022/06/01 06:41:35;;;;;;;5.68;1.73;;;;;;;18.56;80.81;99947.09;5075055;28;20059;-71
2022/06/01 06:44:02;;;;;;;10.35;9.68;;;;;;;19.05;80.34;99959.38;5080938;28;20143;-71
2022/06/01 06:46:29;;;;;;;7.28;1.80;;;;;;;18.57;79.14;99960.88;5078228;28;20140;-72
2022/06/01 06:48:56;;;;;;;3.30;1.35;;;;;;;18.64;79.33;99941.34;5079403;28;20054;-71
2022/06/01 06:51:25;;;;;;;2.95;1.90;;;;;;;18.84;79.00;99978.44;5090479;28;20467;-70
2022/06/01 06:53:52;;;;;;;9.15;1.60;;;;;;;18.60;77.86;99994.13;5080558;28;20089;-71
2022/06/01 06:56:21;;;;;;;1.63;1.35;;;;;;;18.04;77.14;100002.09;5078095;28;20460;-71
2022/06/01 06:58:48;;;;;;;2.40;1.13;;;;;;;17.49;77.71;99998.28;5090147;28;20131;-70
2022/06/01 07:01:16;;;;;;;6.38;1.35;;;;;;;17.11;78.96;100001.13;5091797;28;20052;-68
2022/06/01 07:03:43;;;;;;;5.57;1.73;;;;;;;17.08;79.04;100017.88;5095725;28;20085;-69
2022/06/01 07:06:13;;;;;;;12.23;2.67;;;;;;;17.06;79.56;100029.53;5072843;28;20098;-70
2022/06/01 07:08:47;;;;;;;;;;;;;;;17.07;80.00;100038.81;5076671;28;20135;-71
2022/06/01 07:11:17;;;;;;;10.90;2.38;;;;;;;17.22;80.49;100024.13;5078992;28;20022;-71
2022/06/01 07:13:44;;;;;;;7.00;2.17;;;;;;;17.40;80.63;99991.00;5087575;28;20134;-70
2022/06/01 07:16:17;;;;;;;8.45;2.83;;;;;;;17.43;80.72;99950.81;5074397;28;20135;-70
2022/06/01 07:18:47;;;;;;;5.72;2.28;;;;;;;18.09;80.90;100004.72;5088151;28;20051;-70
2022/06/01 07:21:16;;;;;;;9.88;2.00;;;;;;;18.36;80.96;100005.31;5080953;28;20048;-71
2022/06/01 07:23:44;;;;;;;5.50;2.13;;;;;;;18.51;80.79;100007.50;5093329;28;20063;-71
2022/06/01 07:26:26;;;;;;;10.95;2.13;;;;;;;18.85;80.80;100031.00;5092636;28;20079;-70
2022/06/01 07:28:53;;;;;;;5.43;2.78;;;;;;;19.02;80.43;100030.81;5085567;28;20474;-70
2022/06/01 07:31:21;;;;;;;3.13;1.58;;;;;;;19.16;80.48;100022.81;5080455;28;20084;-71
2022/06/01 07:33:51;;;;;;;3.65;2.38;;;;;;;19.31;80.40;100028.97;5081425;28;20054;-71
2022/06/01 07:36:18;;;;;;;8.10;2.10;;;;;;;19.67;80.47;100053.69;5091323;28;20044;-69
2022/06/01 07:44:49;;;;;;;14.20;2.90;;;;;;;19.58;79.97;100079.25;5074782;28;20086;-71
2022/06/01 07:47:17;;;;;;;5.25;3.03;;;;;;;19.80;80.45;100075.16;5083367;28;20044;-70
2022/06/01 07:50:04;;;;;;;5.68;1.85;;;;;;;19.63;80.11;100066.91;5092592;28;20494;-69
2022/06/01 07:52:51;;;;;;;5.50;1.67;;;;;;;19.67;80.15;100070.69;5084225;28;20514;-72
2022/06/01 07:55:18;;;;;;;13.35;2.00;;;;;;;19.76;80.19;100085.56;5085423;28;20126;-71
2022/06/01 07:57:45;;;;;;;8.75;2.30;;;;;;;19.86;80.41;100070.06;5091370;28;20044;-71
2022/06/01 08:00:13;;;;;;;6.35;1.50;;;;;;;19.95;80.17;100067.94;5090451;28;20080;-70
2022/06/01 08:02:40;;;;;;;9.82;2.42;;;;;;;20.12;79.68;100081.88;5089459;28;20087;-70
2022/06/01 08:05:09;;;;;;;5.03;2.28;;;;;;;20.23;79.28;100090.69;5093145;28;20127;-70
2022/06/01 08:07:36;;;;;;;9.83;3.83;;;;;;;20.30;79.49;100078.75;5090034;28;20490;-71
2022/06/01 08:10:05;;;;;;;8.15;1.73;;;;;;;20.61;79.33;100091.47;5092050;28;20076;-71
2022/06/01 08:15:18;;;;;;;1.90;1.25;;;;;;;20.96;79.36;100077.50;5077643;28;20087;-71
2022/06/01 08:17:55;;;;;;;7.63;1.75;;;;;;;21.06;78.86;100088.34;5086524;28;20056;-70
2022/06/01 08:20:22;;;;;;;5.78;2.17;;;;;;;21.19;78.19;100094.75;5096517;28;20561;-71
2022/06/01 08:22:50;;;;;;;7.07;1.52;;;;;;;21.20;78.39;100070.88;5087931;28;20134;-70
2022/06/01 08:25:17;;;;;;;3.40;1.30;;;;;;;21.57;78.80;100087.69;5091104;28;20058;-72
2022/06/01 08:27:45;;;;;;;4.70;1.73;;;;;;;21.74;78.33;100064.56;5075741;28;20044;-71
2022/06/01 08:30:16;;;;;;;3.65;1.27;;;;;;;21.61;78.45;100061.03;5077368;28;20148;-71
2022/06/01 08:32:43;;;;;;;4.72;1.38;;;;;;;21.66;77.97;100085.50;5081170;28;20059;-71
2022/06/01 08:35:12;;;;;;;4.00;0.88;;;;;;;21.36;77.13;100074.56;5081019;28;20151;-70
2022/06/01 08:37:39;;;;;;;5.25;1.40;;;;;;;21.34;76.56;100078.97;5088049;28;20082;-71
2022/06/01 08:40:07;;;;;;;1.42;0.90;;;;;;;21.31;76.96;100063.47;5071051;28;20044;-71
2022/06/01 08:42:34;;;;;;;4.78;1.65;;;;;;;20.98;76.83;100030.53;5085620;28;20142;-70
2022/06/01 08:45:06;;;;;;;3.17;1.55;;;;;;;21.38;77.02;100066.53;5087570;28;20510;-71
2022/06/01 08:47:39;;;;;;;8.63;1.58;;;;;;;21.65;76.23;100076.16;5080955;28;20069;-71
2022/06/01 08:50:18;;;;;;;8.07;1.83;;;;;;;21.87;76.21;100083.19;5090204;28;20460;-72
2022/06/01 08:52:45;;;;;;;5.00;1.23;;;;;;;22.01;76.28;100083.53;5086756;28;20135;-71
2022/06/01 08:55:13;;;;;;;5.20;1.35;;;;;;;22.17;76.50;100094.09;5095776;28;20079;-71
2022/06/01 08:57:56;;;;;;;5.35;1.40;;;;;;;22.12;75.46;100092.34;5088397;28;20147;-72
2022/06/01 09:00:27;;;;;;;6.05;2.05;;;;;;;22.05;75.24;100062.88;5087739;28;20102;-71
2022/06/01 09:03:00;;;;;;;2.92;1.38;;;;;;;22.48;74.77;100081.78;5092306;28;20570;-71
2022/06/01 09:05:46;;;;;;;3.83;1.25;;;;;;;22.73;74.71;100078.66;5089914;28;20423;-71
2022/06/01 09:08:50;;;;;;;4.13;1.42;;;;;;;22.45;71.50;100088.22;5094922;28;20071;-71
2022/06/01 09:11:25;;;;;;;5.85;1.58;;;;;;;22.36;71.69;100071.38;5092968;28;20551;-70
2022/06/01 09:13:57;;;;;;;2.85;1.20;;;;;;;22.59;72.64;100073.47;5087376;28;20595;-71
2022/06/01 09:16:30;;;;;;;4.38;1.35;;;;;;;22.69;71.67;100064.34;5084278;28;20044;-70
2022/06/01 09:18:58;;;;;;;4.72;1.35;;;;;;;22.80;71.13;100081.66;5095044;28;20082;-71
2022/06/01 09:24:18;;;;;;;2.67;1.30;;;;;;;22.87;70.45;100071.25;5078931;28;20051;-71
2022/06/01 09:26:54;;;;;;;3.97;1.33;;;;;;;22.87;70.78;100071.25;5087239;28;20077;-72
2022/06/01 09:29:23;;;;;;;3.38;1.45;;;;;;;22.88;70.17;100047.28;5088224;28;20473;-70
2022/06/01 09:31:56;;;;;;;3.28;1.23;;;;;;;23.14;70.21;100077.06;5076755;28;20052;-71
2022/06/01 09:34:44;;;;;;;3.85;1.05;;;;;;;23.22;69.14;100076.03;5077350;28;20087;-71
2022/06/01 09:37:25;;;;;;;4.15;1.30;;;;;;;23.26;68.85;100059.81;5083862;28;20135;-75
2022/06/01 09:40:05;;;;;;;2.40;1.25;;;;;;;23.51;67.18;100065.16;5079710;28;20083;-69
2022/06/01 09:42:39;;;;;;;3.53;1.25;;;;;;;23.64;66.95;100058.06;5079078;28;20076;-68
2022/06/01 09:45:27;;;;;;;5.43;1.20;;;;;;;24.29;67.92;100082.75;5089026;28;20078;-69
2022/06/01 09:48:12;;;;;;;3.63;1.38;;;;;;;24.54;67.33;100080.25;5085444;28;20127;-69
2022/06/01 09:50:43;;;;;;;5.10;1.38;;;;;;;24.90;67.02;100077.88;5085721;28;20052;-69
2022/06/01 09:53:10;;;;;;;6.95;1.08;;;;;;;25.35;68.20;100081.69;5091946;28;20048;-70
2022/06/01 09:55:54;;;;;;;1.60;0.90;;;;;;;25.30;66.77;100060.00;5088881;28;20093;-69
2022/06/01 10:06:57;;;;;;;2.95;1.33;;;;;;;25.33;61.79;100064.09;5082344;28;20131;-69
2022/06/01 10:09:30;;;;;;;4.15;1.58;;;;;;;25.53;62.80;100042.63;5086041;28;20082;-69
2022/06/01 10:12:41;;;;;;;2.35;1.33;;;;;;;25.95;62.71;100065.09;5095071;28;20055;-69
2022/06/01 10:15:23;;;;;;;2.75;1.63;;;;;;;26.07;64.17;100072.53;5063149;28;20075;-69
2022/06/01 10:17:59;;;;;;;3.00;1.60;;;;;;;25.75;63.15;100075.94;5076256;28;20049;-69
2022/06/01 10:21:01;;;;;;;5.10;1.38;;;;;;;25.53;63.52;100076.94;5092052;28;20105;-69
2022/06/01 10:23:39;;;;;;;5.75;1.30;;;;;;;25.23;62.29;100051.31;5089107;28;20090;-70
2022/06/01 10:26:17;;;;;;;2.53;1.38;;;;;;;24.87;59.78;100041.53;5099064;28;20127;-71
2022/06/01 10:29:03;;;;;;;4.55;1.58;;;;;;;25.19;59.71;100081.91;5083079;28;20125;-71
2022/06/01 10:31:39;;;;;;;3.75;1.58;;;;;;;25.64;59.81;100077.03;5090124;28;20080;-72
2022/06/01 10:34:31;;;;;;;1.92;1.25;;;;;;;25.77;59.61;100069.81;5091844;28;20048;-71
2022/06/01 10:37:23;;;;;;;1.20;1.05;;;;;;;25.69;60.81;100080.38;5086967;28;20155;-71
2022/06/01 10:40:01;;;;;;;3.33;1.58;;;;;;;25.53;61.48;100076.94;5099363;28;20142;-71
2022/06/01 10:46:00;;;;;;;4.95;1.50;;;;;;;26.06;60.44;100092.97;5082712;28;20412;-72
2022/06/01 10:48:40;;;;;;;1.75;1.05;;;;;;;25.97;60.36;100102.69;5083250;28;20044;-72
2022/06/01 10:51:12;;;;;;;6.93;3.00;;;;;;;25.65;61.47;100087.28;5085125;28;20052;-71
2022/06/01 10:54:07;;;;;;;4.25;2.45;;;;;;;25.48;61.62;100100.19;5084698;28;20139;-71
2022/06/01 10:56:34;;;;;;;2.55;1.25;;;;;;;25.64;63.47;100080.75;5076774;28;20469;-72
2022/06/01 10:59:07;;;;;;;6.15;1.75;;;;;;;25.99;64.57;100106.00;5081646;28;20072;-72
2022/06/01 11:01:56;;;;;;;6.68;1.45;;;;;;;26.00;64.88;100101.91;5085178;28;20089;-72
2022/06/01 11:04:30;;;;;;;6.60;1.73;;;;;;;25.71;65.99;100114.31;5082453;28;20075;-72
2022/06/01 11:07:05;;;;;;;8.32;1.92;;;;;;;25.49;66.45;100116.13;5080676;28;20076;-71
2022/06/01 11:09:44;;;;;;;14.63;2.10;;;;;;;25.43;67.58;100109.94;5080592;28;20072;-71
2022/06/01 11:12:34;;;;;;;7.07;1.55;;;;;;;25.54;68.47;100124.34;5080064;28;20467;-72
2022/06/01 11:15:24;;;;;;;4.93;1.33;;;;;;;25.44;68.51;100116.50;5056961;28;20466;-72
2022/06/01 11:18:30;;;;;;;7.15;1.73;;;;;;;25.04;67.77;100118.03;5044366;28;20556;-72
2022/06/01 11:21:25;;;;;;;7.88;1.88;;;;;;;24.86;67.05;100102.72;5069544;28;20052;-72
2022/06/01 11:24:27;;;;;;;7.05;2.90;;;;;;;24.66;68.94;100124.91;5057555;28;20075;-71
2022/06/01 11:27:30;;;;;;;10.73;2.90;;;;;;;24.58;69.19;100084.84;5081054;28;20048;-71
2022/06/01 11:30:26;;;;;;;8.50;1.73;;;;;;;25.25;68.94;100117.50;5081122;28;20090;-72
2022/06/01 11:33:04;;;;;;;5.63;2.30;;;;;;;25.72;69.80;100133.09;5090457;28;20044;-72
2022/06/01 11:35:39;;;;;;;4.40;1.80;;;;;;;25.93;69.26;100133.31;5090853;28;20134;-72
2022/06/01 11:38:18;;;;;;;13.15;2.17;;;;;;;25.75;68.82;100123.75;5091856;28;20082;-71
2022/06/01 11:41:24;;;;;;;3.58;1.52;;;;;;;25.61;68.87;100101.56;5087459;28;20044;-72
2022/06/01 11:43:58;;;;;;;8.90;2.72;;;;;;;25.77;67.15;100104.94;5072684;28;20052;-72
2022/06/01 11:46:40;;;;;;;5.55;1.33;;;;;;;25.50;69.13;100106.31;5075450;28;20464;-72
2022/06/01 11:49:24;;;;;;;6.57;1.90;;;;;;;25.39;69.11;100111.94;5090550;28;20090;-72
2022/06/01 11:51:51;;;;;;;7.50;2.15;;;;;;;25.30;67.70;100100.00;5088217;28;20447;-71
2022/06/01 11:54:36;;;;;;;9.57;1.30;;;;;;;25.38;67.82;100110.28;5092841;28;20135;-73
2022/06/01 11:57:17;;;;;;;1.70;1.20;;;;;;;25.58;68.75;100105.19;5070645;28;20140;-72
2022/06/01 12:00:04;;;;;;;8.63;1.80;;;;;;;25.70;67.79;100119.19;5087504;28;20071;-71
2022/06/01 12:02:40;;;;;;;3.92;1.20;;;;;;;25.55;68.17;100130.91;5088793;28;20110;-72
2022/06/01 12:05:13;;;;;;;6.32;2.15;;;;;;;25.46;67.55;100122.63;5083585;28;20041;-71
2022/06/01 12:07:47;;;;;;;8.55;3.08;;;;;;;25.31;67.38;100127.38;5074878;28;20134;-71
2022/06/01 12:10:28;;;;;;;5.38;1.30;;;;;;;24.77;68.94;100085.88;5099008;28;20047;-72
2022/06/01 12:12:55;;;;;;;7.28;2.10;;;;;;;24.60;67.08;100144.38;5090445;28;20135;-72
2022/06/01 12:15:26;;;;;;;4.70;1.45;;;;;;;24.18;67.60;100139.66;5091573;28;20135;-73
2022/06/01 12:18:11;;;;;;;6.15;1.75;;;;;;;23.96;68.50;100137.63;5087351;28;20078;-75
2022/06/01 12:20:38;;;;;;;5.35;1.52;;;;;;;23.71;68.09;100152.28;5072912;28;20053;-71
2022/06/01 12:29:31;;;;;;;7.10;2.08;;;;;;;22.83;70.72;100161.44;5072022;28;20052;-72